createdAt,value
2024-03-15T00:00:20.470Z,19.67
2024-03-15T00:03:25.578Z,21.35
2024-03-15T00:06:29.683Z,28.13
2024-03-15T00:09:34.362Z,23.70
2024-03-15T00:12:38.091Z,22.27
2024-03-15T00:15:41.829Z,19.10
2024-03-15T00:18:45.770Z,21.05
2024-03-15T00:21:50.079Z,18.27
2024-03-15T00:24:53.494Z,17.10
2024-03-15T00:27:57.264Z,13.32
2024-03-15T00:31:02.056Z,16.95
2024-03-15T00:34:06.628Z,14.55
2024-03-15T00:37:10.621Z,13.93
2024-03-15T00:40:14.158Z,14.20
2024-03-15T00:43:18.798Z,14.07
2024-03-15T00:46:23.788Z,19.48
2024-03-15T00:49:27.394Z,20.70
2024-03-15T00:52:30.919Z,14.98
2024-03-15T00:55:35.189Z,18.08
2024-03-15T00:58:39.044Z,15.55
2024-03-15T01:01:44.279Z,17.23
2024-03-15T01:04:47.746Z,12.10
2024-03-15T01:07:52.285Z,12.00
2024-03-15T01:10:56.150Z,10.00
2024-03-15T01:14:00.382Z,9.10
2024-03-15T01:17:03.889Z,8.02
2024-03-15T01:20:09.982Z,8.95
2024-03-15T01:23:13.557Z,9.57
2024-03-15T01:26:17.429Z,10.88
2024-03-15T01:29:21.032Z,9.73
2024-03-15T01:32:24.697Z,8.77
2024-03-15T01:35:34.073Z,11.70
2024-03-15T01:38:37.617Z,10.30
2024-03-15T01:41:41.831Z,11.57
2024-03-15T01:44:54.034Z,11.00
2024-03-15T01:47:58.708Z,11.23
2024-03-15T01:51:02.387Z,11.52
2024-03-15T01:54:06.202Z,13.18
2024-03-15T01:57:10.467Z,13.93
2024-03-15T02:00:15.526Z,13.23
2024-03-15T02:03:19.088Z,14.52
2024-03-15T02:06:23.401Z,13.95
2024-03-15T02:09:30.497Z,12.30
2024-03-15T02:12:35.163Z,11.23
2024-03-15T02:15:38.677Z,9.20
2024-03-15T02:18:42.429Z,8.38
2024-03-15T02:21:52.195Z,8.07
2024-03-15T02:24:55.701Z,6.57
2024-03-15T02:27:59.328Z,9.30
2024-03-15T02:31:03.118Z,8.60
2024-03-15T02:34:06.728Z,7.55
2024-03-15T02:37:10.273Z,5.20
2024-03-15T02:40:14.377Z,6.07
2024-03-15T02:43:19.289Z,6.70
2024-03-15T02:46:22.809Z,7.10
2024-03-15T02:49:26.151Z,6.88
2024-03-15T02:52:30.520Z,7.38
2024-03-15T02:55:34.212Z,8.57
2024-03-15T02:58:38.129Z,9.30
2024-03-15T03:01:42.299Z,9.00
2024-03-15T03:04:45.848Z,8.68
2024-03-15T03:07:51.394Z,8.50
2024-03-15T03:10:55.554Z,7.28
2024-03-15T03:14:00.405Z,8.25
2024-03-15T03:17:04.180Z,7.50
2024-03-15T03:20:20.503Z,7.80
2024-03-15T03:23:25.656Z,6.60
2024-03-15T03:26:29.590Z,7.63
2024-03-15T03:29:33.216Z,7.22
2024-03-15T03:32:39.334Z,5.53
2024-03-15T03:35:43.094Z,6.15
2024-03-15T03:38:46.761Z,5.35
2024-03-15T03:41:50.590Z,5.18
2024-03-15T03:44:54.312Z,5.53
2024-03-15T03:47:58.153Z,6.17
2024-03-15T03:51:04.414Z,5.15
2024-03-15T03:54:08.368Z,4.50
2024-03-15T03:57:38.696Z,4.22
2024-03-15T04:00:48.215Z,4.45
2024-03-15T04:03:51.828Z,4.63
2024-03-15T04:06:55.528Z,3.42
2024-03-15T04:09:59.659Z,3.40
2024-03-15T04:13:03.242Z,3.00
2024-03-15T04:16:08.432Z,3.92
2024-03-15T04:19:11.985Z,3.20
2024-03-15T04:22:15.951Z,3.30
2024-03-15T04:25:21.793Z,3.38
2024-03-15T04:28:26.758Z,4.80
2024-03-15T04:31:33.459Z,4.18
2024-03-15T04:34:39.091Z,2.53
2024-03-15T04:37:42.733Z,2.47
2024-03-15T04:40:47.240Z,2.65
2024-03-15T04:43:51.567Z,2.40
2024-03-15T04:46:54.928Z,2.72
2024-03-15T04:50:00.999Z,3.30
2024-03-15T04:53:05.192Z,2.90
2024-03-15T04:56:09.346Z,3.22
2024-03-15T04:59:13.177Z,2.78
2024-03-15T05:02:16.993Z,3.35
2024-03-15T05:05:23.561Z,3.23
2024-03-15T05:08:28.648Z,3.10
2024-03-15T05:11:32.130Z,3.78
2024-03-15T05:14:35.635Z,3.80
2024-03-15T05:17:40.828Z,4.18
2024-03-15T05:20:44.702Z,2.77
2024-03-15T05:23:49.101Z,3.40
2024-03-15T05:26:52.820Z,4.28
2024-03-15T05:29:56.707Z,4.70
2024-03-15T05:33:00.024Z,3.65
2024-03-15T05:36:05.336Z,4.27
2024-03-15T05:39:12.797Z,6.05
2024-03-15T05:42:17.072Z,3.40
2024-03-15T05:45:22.897Z,3.60
2024-03-15T05:48:26.528Z,10.50
2024-03-15T05:51:30.487Z,4.60
2024-03-15T05:54:34.068Z,5.47
2024-03-15T05:57:37.510Z,4.70
2024-03-15T06:00:41.262Z,9.95
2024-03-15T06:03:45.220Z,6.30
2024-03-15T06:06:49.092Z,4.10
2024-03-15T06:09:52.697Z,3.13
2024-03-15T06:12:57.176Z,3.58
2024-03-15T06:16:00.800Z,3.55
2024-03-15T06:19:06.355Z,4.47
2024-03-15T06:22:10.028Z,4.53
2024-03-15T06:25:13.569Z,2.95
2024-03-15T06:28:17.245Z,2.80
2024-03-15T06:31:21.197Z,9.68
2024-03-15T06:34:25.559Z,3.78
2024-03-15T06:37:29.413Z,4.47
2024-03-15T06:40:33.059Z,3.90
2024-03-15T06:43:55.740Z,3.78
2024-03-15T06:47:11.422Z,4.22
2024-03-15T06:50:15.167Z,3.97
2024-03-15T06:53:21.865Z,7.60
2024-03-15T06:56:25.737Z,3.67
2024-03-15T06:59:29.473Z,4.53
2024-03-15T07:02:33.613Z,5.05
2024-03-15T07:05:37.239Z,4.15
2024-03-15T07:08:41.526Z,5.80
2024-03-15T07:11:49.932Z,4.70
2024-03-15T07:14:54.830Z,5.13
2024-03-15T07:18:06.717Z,5.38
2024-03-15T07:21:13.391Z,7.05
2024-03-15T07:24:17.043Z,5.67
2024-03-15T07:27:21.129Z,4.80
2024-03-15T07:30:26.276Z,5.65
2024-03-15T07:33:29.786Z,5.40
2024-03-15T07:36:34.259Z,6.50
2024-03-15T07:39:38.064Z,11.23
2024-03-15T07:42:43.550Z,7.20
2024-03-15T07:45:50.049Z,6.28
2024-03-15T07:48:53.653Z,5.57
2024-03-15T07:51:58.061Z,5.57
2024-03-15T07:55:01.787Z,4.80
2024-03-15T07:58:05.553Z,6.60
2024-03-15T08:01:12.331Z,5.97
2024-03-15T08:04:16.227Z,5.07
2024-03-15T08:07:21.911Z,5.30
2024-03-15T08:10:25.404Z,5.07
2024-03-15T08:13:30.632Z,5.82
2024-03-15T08:16:37.244Z,4.63
2024-03-15T08:19:41.465Z,8.45
2024-03-15T08:22:44.927Z,5.88
2024-03-15T08:25:48.561Z,5.23
2024-03-15T08:28:52.694Z,6.00
2024-03-15T08:31:56.572Z,11.40
2024-03-15T08:35:00.656Z,6.68
2024-03-15T08:38:04.836Z,7.43
2024-03-15T08:44:13.202Z,7.65
2024-03-15T08:47:20.134Z,7.88
2024-03-15T08:50:23.776Z,5.90
2024-03-15T08:53:28.028Z,7.50
2024-03-15T08:56:31.397Z,5.83
2024-03-15T08:59:35.838Z,5.65
2024-03-15T09:02:39.983Z,7.25
2024-03-15T09:05:43.578Z,6.90
2024-03-15T09:08:56.229Z,6.45
2024-03-15T09:12:00.436Z,8.57
2024-03-15T09:15:04.715Z,7.38
2024-03-15T09:18:10.757Z,9.50
2024-03-15T09:21:14.534Z,6.70
2024-03-15T09:24:19.946Z,7.13
2024-03-15T09:27:23.769Z,6.77
2024-03-15T09:30:31.178Z,6.40
2024-03-15T09:33:37.286Z,3.72
2024-03-15T09:36:41.073Z,5.90
2024-03-15T09:39:44.793Z,6.68
2024-03-15T09:42:53.414Z,8.87
2024-03-15T09:45:57.812Z,8.23
2024-03-15T09:49:02.267Z,7.63
2024-03-15T09:52:09.106Z,8.05
2024-03-15T09:55:24.569Z,10.43
2024-03-15T09:58:28.567Z,9.30
2024-03-15T10:01:34.533Z,8.27
2024-03-15T10:04:38.516Z,7.40
2024-03-15T10:07:42.213Z,8.10
2024-03-15T10:10:47.267Z,7.00
2024-03-15T10:13:51.223Z,19.40
2024-03-15T10:16:55.277Z,9.50
2024-03-15T10:19:59.934Z,13.52
2024-03-15T10:23:04.509Z,10.80
2024-03-15T10:26:09.204Z,12.93
2024-03-15T10:29:13.503Z,14.80
2024-03-15T10:32:16.997Z,17.23
2024-03-15T10:35:21.264Z,15.05
2024-03-15T10:38:24.628Z,13.93
2024-03-15T10:41:29.292Z,13.73
2024-03-15T10:44:34.581Z,14.43
2024-03-15T10:47:38.096Z,19.07
2024-03-15T10:50:44.738Z,21.73
2024-03-15T10:53:50.571Z,22.15
2024-03-15T10:56:54.153Z,20.98
2024-03-15T10:59:58.525Z,17.93
2024-03-15T11:03:27.367Z,19.13
2024-03-15T11:06:47.447Z,21.58
2024-03-15T11:09:56.122Z,24.10
2024-03-15T11:13:03.333Z,25.77
2024-03-15T11:16:20.502Z,23.20
2024-03-15T11:19:24.368Z,18.88
2024-03-15T11:22:28.440Z,15.15
2024-03-15T11:25:34.440Z,16.48
2024-03-15T11:28:40.137Z,16.40
2024-03-15T11:31:47.533Z,36.70
2024-03-15T11:34:51.736Z,51.90
2024-03-15T11:37:57.977Z,92.82
2024-03-15T11:41:02.429Z,275.92
2024-03-15T11:44:06.129Z,62.53
2024-03-15T11:47:10.960Z,52.53
2024-03-15T11:50:18.131Z,131.63
2024-03-15T11:53:24.140Z,114.72
2024-03-15T11:56:27.834Z,118.63
2024-03-15T11:59:50.231Z,249.60
2024-03-15T12:02:58.566Z,407.03
2024-03-15T12:06:02.566Z,119.97
2024-03-15T12:09:06.134Z,79.80
2024-03-15T12:12:09.696Z,66.13
2024-03-15T12:15:31.969Z,47.25
2024-03-15T12:18:36.482Z,40.77
2024-03-15T12:21:42.170Z,39.70
2024-03-15T12:24:45.535Z,42.55
2024-03-15T12:27:49.693Z,32.55
2024-03-15T12:30:55.257Z,30.48
2024-03-15T12:33:58.796Z,30.57
2024-03-15T12:37:02.274Z,38.78
2024-03-15T12:40:19.078Z,38.53
2024-03-15T12:43:22.540Z,34.42
2024-03-15T12:46:25.973Z,41.38
2024-03-15T12:49:29.573Z,36.00
2024-03-15T12:52:34.641Z,27.88
2024-03-15T12:55:38.114Z,29.60
2024-03-15T12:58:41.558Z,29.10
2024-03-15T13:01:45.267Z,30.20
2024-03-15T13:04:48.769Z,34.33
2024-03-15T13:07:55.117Z,37.20
2024-03-15T13:10:58.619Z,28.77
2024-03-15T13:14:02.298Z,30.25
2024-03-15T13:17:05.879Z,19.70
2024-03-15T13:20:17.453Z,19.33
2024-03-15T13:23:21.001Z,15.85
2024-03-15T13:26:27.524Z,15.90
2024-03-15T13:29:30.890Z,14.82
2024-03-15T13:32:34.411Z,15.57
2024-03-15T13:35:38.958Z,15.53
2024-03-15T13:38:43.934Z,15.65
2024-03-15T13:41:48.142Z,14.98
2024-03-15T13:44:51.568Z,20.48
2024-03-15T13:48:16.773Z,21.42
2024-03-15T13:51:20.388Z,17.63
2024-03-15T13:54:23.964Z,28.83
2024-03-15T13:57:27.866Z,19.10
2024-03-15T14:00:34.865Z,20.90
2024-03-15T14:03:38.795Z,22.98
2024-03-15T14:06:43.345Z,23.63
2024-03-15T14:09:46.787Z,50.85
2024-03-15T14:12:52.725Z,30.90
2024-03-15T14:15:57.014Z,28.00
2024-03-15T14:19:04.083Z,30.17
2024-03-15T14:22:11.532Z,31.23
2024-03-15T14:25:18.117Z,32.65
2024-03-15T14:28:21.765Z,33.05
2024-03-15T14:31:25.571Z,22.48
2024-03-15T14:34:28.892Z,56.42
2024-03-15T14:37:32.441Z,18.67
2024-03-15T14:40:40.448Z,20.50
2024-03-15T14:43:44.328Z,18.63
2024-03-15T14:46:48.782Z,18.52
2024-03-15T14:49:52.531Z,14.52
2024-03-15T14:52:56.917Z,10.13
2024-03-15T14:56:00.776Z,11.77
2024-03-15T14:59:06.499Z,14.85
2024-03-15T15:02:10.230Z,16.35
2024-03-15T15:05:14.018Z,23.95
2024-03-15T15:08:17.621Z,37.93
2024-03-15T15:11:21.170Z,42.88
2024-03-15T15:14:28.789Z,37.30
2024-03-15T15:17:32.567Z,39.30
2024-03-15T15:20:36.206Z,49.28
2024-03-15T15:23:40.109Z,39.20
2024-03-15T15:26:43.575Z,39.33
2024-03-15T15:29:47.378Z,39.30
2024-03-15T15:32:51.069Z,38.85
2024-03-15T15:35:54.474Z,42.20
2024-03-15T15:38:58.047Z,43.67
2024-03-15T15:42:01.589Z,41.65
2024-03-15T15:45:05.334Z,41.30
2024-03-15T15:48:09.784Z,39.67
2024-03-15T15:51:16.127Z,33.13
2024-03-15T15:54:19.645Z,30.33
2024-03-15T15:57:23.624Z,30.52
2024-03-15T16:00:27.257Z,31.63
2024-03-15T16:03:31.234Z,25.05
2024-03-15T16:06:34.821Z,23.65
2024-03-15T16:09:38.406Z,24.73
2024-03-15T16:12:42.482Z,22.15
2024-03-15T16:15:47.337Z,21.55
2024-03-15T16:18:51.659Z,19.65
2024-03-15T16:21:55.502Z,19.17
2024-03-15T16:24:59.680Z,18.03
2024-03-15T16:28:06.674Z,19.88
2024-03-15T16:31:10.247Z,18.58
2024-03-15T16:34:13.929Z,19.27
2024-03-15T16:37:18.363Z,19.75
2024-03-15T16:40:24.075Z,20.53
2024-03-15T16:43:28.459Z,21.33
2024-03-15T16:46:32.095Z,23.83
2024-03-15T16:49:35.584Z,29.27
2024-03-15T16:52:39.250Z,27.05
2024-03-15T16:55:43.985Z,36.13
2024-03-15T16:58:48.795Z,41.67
2024-03-15T17:01:52.319Z,44.83
2024-03-15T17:04:56.060Z,53.08
2024-03-15T17:08:00.054Z,56.05
2024-03-15T17:11:04.527Z,60.83
2024-03-15T17:14:08.342Z,69.47
2024-03-15T17:17:12.698Z,78.78
2024-03-15T17:20:18.121Z,78.75
2024-03-15T17:23:22.616Z,82.78
2024-03-15T17:26:26.526Z,86.07
2024-03-15T17:29:30.298Z,91.20
2024-03-15T17:32:33.873Z,95.60
2024-03-15T17:35:37.505Z,89.55
2024-03-15T17:38:42.323Z,74.22
2024-03-15T17:41:45.795Z,61.73
2024-03-15T17:44:50.108Z,58.22
2024-03-15T17:47:54.280Z,60.55
2024-03-15T17:50:57.917Z,62.35
2024-03-15T17:54:01.573Z,63.30
2024-03-15T17:57:05.080Z,69.00
2024-03-15T18:00:14.589Z,65.13
2024-03-15T18:03:18.304Z,72.47
2024-03-15T18:06:21.990Z,69.35
2024-03-15T18:09:28.066Z,69.63
2024-03-15T18:12:31.638Z,73.90
2024-03-15T18:15:34.954Z,66.20
2024-03-15T18:18:39.109Z,70.85
2024-03-15T18:21:42.850Z,59.70
2024-03-15T18:24:49.827Z,53.38
2024-03-15T18:27:55.157Z,57.73
2024-03-15T18:31:01.716Z,53.30
2024-03-15T18:34:05.783Z,51.72
2024-03-15T18:37:11.230Z,51.33
2024-03-15T18:40:15.130Z,51.55
2024-03-15T18:43:19.055Z,49.30
2024-03-15T18:46:23.089Z,48.33
2024-03-15T18:49:27.122Z,49.35
2024-03-15T18:52:30.949Z,48.55
2024-03-15T18:55:34.626Z,47.33
2024-03-15T18:58:38.754Z,51.43
2024-03-15T19:01:42.360Z,43.92
2024-03-15T19:04:48.942Z,44.42
2024-03-15T19:07:52.565Z,42.97
2024-03-15T19:10:56.344Z,43.72
2024-03-15T19:14:01.336Z,40.07
2024-03-15T19:17:05.069Z,36.90
2024-03-15T19:20:10.905Z,36.65
2024-03-15T19:23:14.673Z,33.92
2024-03-15T19:26:18.239Z,34.35
2024-03-15T19:29:23.398Z,34.70
2024-03-15T19:32:32.301Z,33.13
2024-03-15T19:35:36.082Z,33.13
2024-03-15T19:38:39.669Z,31.65
2024-03-15T19:41:43.237Z,32.38
2024-03-15T19:44:47.685Z,33.13
2024-03-15T19:47:51.058Z,34.22
2024-03-15T19:50:54.541Z,32.67
2024-03-15T19:53:58.111Z,33.33
2024-03-15T19:57:01.535Z,33.03
2024-03-15T20:00:07.098Z,30.90
2024-03-15T20:03:15.163Z,30.67
2024-03-15T20:06:19.182Z,28.20
2024-03-15T20:09:22.658Z,28.38
2024-03-15T20:12:26.390Z,28.40
2024-03-15T20:15:30.198Z,26.73
2024-03-15T20:18:34.912Z,29.23
2024-03-15T20:21:39.658Z,28.95
2024-03-15T20:24:43.106Z,27.92
2024-03-15T20:27:48.250Z,28.10
2024-03-15T20:30:53.833Z,28.67
2024-03-15T20:33:57.872Z,27.17
2024-03-15T20:37:01.445Z,26.00
2024-03-15T20:40:07.545Z,25.77
2024-03-15T20:43:12.318Z,25.50
2024-03-15T20:46:15.974Z,27.37
2024-03-15T20:49:21.835Z,27.35
2024-03-15T20:52:25.862Z,25.88
2024-03-15T20:55:29.521Z,24.48
2024-03-15T20:58:32.960Z,25.35
2024-03-15T21:01:36.513Z,23.80
2024-03-15T21:04:40.271Z,22.85
2024-03-15T21:07:43.973Z,26.05
2024-03-15T21:10:52.695Z,33.78
2024-03-15T21:13:56.282Z,36.65
2024-03-15T21:17:00.780Z,40.67
2024-03-15T21:20:06.825Z,37.95
2024-03-15T21:23:10.175Z,33.45
2024-03-15T21:26:13.944Z,34.13
2024-03-15T21:29:17.309Z,33.47
2024-03-15T21:32:20.806Z,31.77
2024-03-15T21:35:24.828Z,27.33
2024-03-15T21:38:29.220Z,24.85
2024-03-15T21:41:33.708Z,21.85
2024-03-15T21:44:43.783Z,23.03
2024-03-15T21:47:50.041Z,22.50
2024-03-15T21:50:54.701Z,21.48
2024-03-15T21:53:58.811Z,20.48
2024-03-15T21:57:02.390Z,20.15
2024-03-15T22:00:07.048Z,29.03
2024-03-15T22:03:15.958Z,23.65
2024-03-15T22:06:19.614Z,27.77
2024-03-15T22:09:23.286Z,21.45
2024-03-15T22:12:26.969Z,13.53
2024-03-15T22:15:33.645Z,19.38
2024-03-15T22:18:37.141Z,16.85
2024-03-15T22:21:40.913Z,15.90
2024-03-15T22:24:44.922Z,15.40
2024-03-15T22:27:48.564Z,15.97
2024-03-15T22:30:52.194Z,18.05
2024-03-15T22:33:55.819Z,26.02
2024-03-15T22:37:02.801Z,24.98
2024-03-15T22:40:06.941Z,22.93
2024-03-15T22:43:10.750Z,20.45
2024-03-15T22:46:14.509Z,22.48
2024-03-15T22:49:18.156Z,13.98
2024-03-15T22:52:21.841Z,13.60
2024-03-15T22:55:25.491Z,17.30
2024-03-15T22:58:29.376Z,24.63
2024-03-15T23:01:39.627Z,18.83
2024-03-15T23:04:43.320Z,22.93
2024-03-15T23:07:46.685Z,13.85
2024-03-15T23:10:50.825Z,13.07
2024-03-15T23:13:54.400Z,16.85
2024-03-15T23:17:01.198Z,13.95
2024-03-15T23:20:07.068Z,10.03
2024-03-15T23:23:11.315Z,11.02
2024-03-15T23:26:14.950Z,12.27
2024-03-15T23:29:18.728Z,16.77
2024-03-15T23:32:22.241Z,15.52
2024-03-15T23:35:25.892Z,14.82
2024-03-15T23:38:29.367Z,13.77
2024-03-15T23:41:34.159Z,13.45
2024-03-15T23:44:40.989Z,12.80
2024-03-15T23:47:45.119Z,15.05
2024-03-15T23:50:48.530Z,13.10
2024-03-15T23:53:52.168Z,15.00
2024-03-15T23:56:55.789Z,14.30
2024-03-15T23:59:59.393Z,14.98
